sensor_id;sensor_type;location;lat;lon;timestamp;P1;durP1;ratioP1;P2;durP2;ratioP2
59147;SDS011;44930;52.878;6.168;2022-07-25T00:00:55;4.45;;;3.25;;
59147;SDS011;44930;52.878;6.168;2022-07-25T00:03:21;3.17;;;2.88;;
59147;SDS011;44930;52.878;6.168;2022-07-25T00:05:46;4.03;;;3.00;;
59147;SDS011;44930;52.878;6.168;2022-07-25T00:08:12;5.32;;;2.92;;
59147;SDS011;44930;52.878;6.168;2022-07-25T00:10:38;5.18;;;2.92;;
59147;SDS011;44930;52.878;6.168;2022-07-25T00:13:06;5.93;;;3.13;;
59147;SDS011;44930;52.878;6.168;2022-07-25T00:15:32;5.25;;;3.75;;
59147;SDS011;44930;52.878;6.168;2022-07-25T00:17:58;3.42;;;3.00;;
59147;SDS011;44930;52.878;6.168;2022-07-25T00:20:23;6.53;;;2.90;;
59147;SDS011;44930;52.878;6.168;2022-07-25T00:22:49;5.40;;;3.38;;
59147;SDS011;44930;52.878;6.168;2022-07-25T00:25:14;4.65;;;3.20;;
59147;SDS011;44930;52.878;6.168;2022-07-25T00:27:40;5.45;;;3.60;;
59147;SDS011;44930;52.878;6.168;2022-07-25T00:30:06;5.05;;;3.50;;
59147;SDS011;44930;52.878;6.168;2022-07-25T00:32:32;16.55;;;3.78;;
59147;SDS011;44930;52.878;6.168;2022-07-25T00:34:58;4.40;;;3.55;;
59147;SDS011;44930;52.878;6.168;2022-07-25T00:37:23;5.03;;;2.97;;
59147;SDS011;44930;52.878;6.168;2022-07-25T00:39:49;4.57;;;3.28;;
59147;SDS011;44930;52.878;6.168;2022-07-25T00:42:14;4.38;;;3.72;;
59147;SDS011;44930;52.878;6.168;2022-07-25T00:44:40;4.25;;;3.75;;
59147;SDS011;44930;52.878;6.168;2022-07-25T00:47:05;5.03;;;3.90;;
59147;SDS011;44930;52.878;6.168;2022-07-25T00:49:31;4.55;;;3.67;;
59147;SDS011;44930;52.878;6.168;2022-07-25T00:51:57;4.82;;;3.40;;
59147;SDS011;44930;52.878;6.168;2022-07-25T00:54:24;5.38;;;4.45;;
59147;SDS011;44930;52.878;6.168;2022-07-25T00:56:50;5.47;;;3.95;;
59147;SDS011;44930;52.878;6.168;2022-07-25T00:59:16;9.95;;;3.78;;
59147;SDS011;44930;52.878;6.168;2022-07-25T01:01:42;4.93;;;4.20;;
59147;SDS011;44930;52.878;6.168;2022-07-25T01:04:12;5.57;;;4.10;;
59147;SDS011;44930;52.878;6.168;2022-07-25T01:06:40;5.43;;;4.10;;
59147;SDS011;44930;52.878;6.168;2022-07-25T01:09:06;7.25;;;4.43;;
59147;SDS011;44930;52.878;6.168;2022-07-25T01:11:32;7.70;;;4.45;;
59147;SDS011;44930;52.878;6.168;2022-07-25T01:13:57;6.60;;;4.03;;
59147;SDS011;44930;52.878;6.168;2022-07-25T01:16:23;6.00;;;4.35;;
59147;SDS011;44930;52.878;6.168;2022-07-25T01:18:49;5.45;;;4.53;;
59147;SDS011;44930;52.878;6.168;2022-07-25T01:21:14;6.00;;;4.15;;
59147;SDS011;44930;52.878;6.168;2022-07-25T01:23:40;5.97;;;4.55;;
59147;SDS011;44930;52.878;6.168;2022-07-25T01:26:06;6.93;;;4.45;;
59147;SDS011;44930;52.878;6.168;2022-07-25T01:28:31;6.30;;;4.78;;
59147;SDS011;44930;52.878;6.168;2022-07-25T01:30:57;5.40;;;4.53;;
59147;SDS011;44930;52.878;6.168;2022-07-25T01:33:25;5.43;;;4.90;;
59147;SDS011;44930;52.878;6.168;2022-07-25T01:35:51;6.72;;;5.10;;
59147;SDS011;44930;52.878;6.168;2022-07-25T01:38:16;7.55;;;4.80;;
59147;SDS011;44930;52.878;6.168;2022-07-25T01:40:42;6.70;;;5.35;;
59147;SDS011;44930;52.878;6.168;2022-07-25T01:43:08;6.93;;;4.47;;
59147;SDS011;44930;52.878;6.168;2022-07-25T01:45:35;5.88;;;4.97;;
59147;SDS011;44930;52.878;6.168;2022-07-25T01:48:00;6.53;;;4.78;;
59147;SDS011;44930;52.878;6.168;2022-07-25T01:50:26;6.00;;;5.30;;
59147;SDS011;44930;52.878;6.168;2022-07-25T01:52:52;8.98;;;5.65;;
59147;SDS011;44930;52.878;6.168;2022-07-25T01:55:18;7.22;;;5.28;;
59147;SDS011;44930;52.878;6.168;2022-07-25T01:57:43;6.93;;;5.57;;
59147;SDS011;44930;52.878;6.168;2022-07-25T02:00:09;7.22;;;6.53;;
59147;SDS011;44930;52.878;6.168;2022-07-25T02:02:37;7.00;;;5.47;;
59147;SDS011;44930;52.878;6.168;2022-07-25T02:05:04;6.78;;;5.32;;
59147;SDS011;44930;52.878;6.168;2022-07-25T02:07:31;6.47;;;5.20;;
59147;SDS011;44930;52.878;6.168;2022-07-25T02:09:56;6.10;;;5.50;;
59147;SDS011;44930;52.878;6.168;2022-07-25T02:12:22;9.52;;;5.63;;
59147;SDS011;44930;52.878;6.168;2022-07-25T02:14:47;9.32;;;5.55;;
59147;SDS011;44930;52.878;6.168;2022-07-25T02:17:13;7.20;;;5.63;;
59147;SDS011;44930;52.878;6.168;2022-07-25T02:19:39;7.13;;;5.95;;
59147;SDS011;44930;52.878;6.168;2022-07-25T02:22:04;6.03;;;5.43;;
59147;SDS011;44930;52.878;6.168;2022-07-25T02:24:30;5.72;;;4.85;;
59147;SDS011;44930;52.878;6.168;2022-07-25T02:26:56;9.32;;;5.15;;
59147;SDS011;44930;52.878;6.168;2022-07-25T02:29:22;7.90;;;5.30;;
59147;SDS011;44930;52.878;6.168;2022-07-25T02:31:47;8.68;;;4.78;;
59147;SDS011;44930;52.878;6.168;2022-07-25T02:34:17;6.57;;;5.00;;
59147;SDS011;44930;52.878;6.168;2022-07-25T02:36:44;7.25;;;5.20;;
59147;SDS011;44930;52.878;6.168;2022-07-25T02:39:10;6.10;;;5.22;;
59147;SDS011;44930;52.878;6.168;2022-07-25T02:41:36;6.20;;;5.45;;
59147;SDS011;44930;52.878;6.168;2022-07-25T02:44:02;7.22;;;5.95;;
59147;SDS011;44930;52.878;6.168;2022-07-25T02:46:28;9.70;;;6.20;;
59147;SDS011;44930;52.878;6.168;2022-07-25T02:48:54;6.85;;;5.35;;
59147;SDS011;44930;52.878;6.168;2022-07-25T02:51:22;7.68;;;5.50;;
59147;SDS011;44930;52.878;6.168;2022-07-25T02:53:47;6.13;;;5.50;;
59147;SDS011;44930;52.878;6.168;2022-07-25T02:56:16;7.45;;;6.10;;
59147;SDS011;44930;52.878;6.168;2022-07-25T02:58:42;8.48;;;6.13;;
59147;SDS011;44930;52.878;6.168;2022-07-25T03:01:07;6.60;;;6.00;;
59147;SDS011;44930;52.878;6.168;2022-07-25T03:03:33;6.78;;;5.40;;
59147;SDS011;44930;52.878;6.168;2022-07-25T03:05:58;7.03;;;5.82;;
59147;SDS011;44930;52.878;6.168;2022-07-25T03:08:24;7.60;;;5.60;;
59147;SDS011;44930;52.878;6.168;2022-07-25T03:10:51;8.45;;;6.93;;
59147;SDS011;44930;52.878;6.168;2022-07-25T03:13:19;7.63;;;6.13;;
59147;SDS011;44930;52.878;6.168;2022-07-25T03:15:47;7.78;;;5.78;;
59147;SDS011;44930;52.878;6.168;2022-07-25T03:18:13;12.35;;;6.00;;
59147;SDS011;44930;52.878;6.168;2022-07-25T03:20:38;11.13;;;6.50;;
59147;SDS011;44930;52.878;6.168;2022-07-25T03:23:04;7.18;;;6.43;;
59147;SDS011;44930;52.878;6.168;2022-07-25T03:25:29;6.43;;;5.72;;
59147;SDS011;44930;52.878;6.168;2022-07-25T03:27:55;7.60;;;6.30;;
59147;SDS011;44930;52.878;6.168;2022-07-25T03:30:20;6.90;;;6.15;;
59147;SDS011;44930;52.878;6.168;2022-07-25T03:32:46;7.85;;;6.22;;
59147;SDS011;44930;52.878;6.168;2022-07-25T03:35:12;7.63;;;6.43;;
59147;SDS011;44930;52.878;6.168;2022-07-25T03:37:39;8.45;;;7.55;;
59147;SDS011;44930;52.878;6.168;2022-07-25T03:40:05;9.45;;;8.02;;
59147;SDS011;44930;52.878;6.168;2022-07-25T03:42:31;8.80;;;7.57;;
59147;SDS011;44930;52.878;6.168;2022-07-25T03:44:56;9.85;;;8.40;;
59147;SDS011;44930;52.878;6.168;2022-07-25T03:47:22;10.23;;;7.53;;
59147;SDS011;44930;52.878;6.168;2022-07-25T03:49:47;11.88;;;7.97;;
59147;SDS011;44930;52.878;6.168;2022-07-25T03:52:13;14.15;;;9.40;;
59147;SDS011;44930;52.878;6.168;2022-07-25T03:54:38;12.77;;;9.60;;
59147;SDS011;44930;52.878;6.168;2022-07-25T03:57:04;9.43;;;8.43;;
59147;SDS011;44930;52.878;6.168;2022-07-25T03:59:30;12.07;;;9.10;;
59147;SDS011;44930;52.878;6.168;2022-07-25T04:01:55;11.15;;;9.32;;
59147;SDS011;44930;52.878;6.168;2022-07-25T04:04:21;11.10;;;8.77;;
59147;SDS011;44930;52.878;6.168;2022-07-25T04:06:46;12.00;;;9.57;;
59147;SDS011;44930;52.878;6.168;2022-07-25T04:09:12;10.52;;;8.85;;
59147;SDS011;44930;52.878;6.168;2022-07-25T04:11:39;10.82;;;9.60;;
59147;SDS011;44930;52.878;6.168;2022-07-25T04:14:06;10.38;;;9.25;;
59147;SDS011;44930;52.878;6.168;2022-07-25T04:16:32;16.13;;;10.48;;
59147;SDS011;44930;52.878;6.168;2022-07-25T04:18:57;10.80;;;9.68;;
59147;SDS011;44930;52.878;6.168;2022-07-25T04:21:23;11.13;;;9.20;;
59147;SDS011;44930;52.878;6.168;2022-07-25T04:23:49;13.45;;;10.38;;
59147;SDS011;44930;52.878;6.168;2022-07-25T04:26:18;19.17;;;9.80;;
59147;SDS011;44930;52.878;6.168;2022-07-25T04:28:43;14.15;;;9.98;;
59147;SDS011;44930;52.878;6.168;2022-07-25T04:31:09;13.88;;;9.77;;
59147;SDS011;44930;52.878;6.168;2022-07-25T04:33:38;10.93;;;9.52;;
59147;SDS011;44930;52.878;6.168;2022-07-25T04:36:06;22.30;;;10.45;;
59147;SDS011;44930;52.878;6.168;2022-07-25T04:38:32;11.98;;;10.20;;
59147;SDS011;44930;52.878;6.168;2022-07-25T04:40:58;14.25;;;10.15;;
59147;SDS011;44930;52.878;6.168;2022-07-25T04:43:24;11.82;;;9.57;;
59147;SDS011;44930;52.878;6.168;2022-07-25T04:45:55;13.40;;;9.75;;
59147;SDS011;44930;52.878;6.168;2022-07-25T04:48:21;12.43;;;9.70;;
59147;SDS011;44930;52.878;6.168;2022-07-25T04:50:46;12.32;;;10.07;;
59147;SDS011;44930;52.878;6.168;2022-07-25T04:53:12;12.55;;;10.38;;
59147;SDS011;44930;52.878;6.168;2022-07-25T04:55:37;10.65;;;9.38;;
59147;SDS011;44930;52.878;6.168;2022-07-25T04:58:05;14.48;;;10.25;;
59147;SDS011;44930;52.878;6.168;2022-07-25T05:00:31;14.35;;;10.60;;
59147;SDS011;44930;52.878;6.168;2022-07-25T05:02:57;13.90;;;10.65;;
59147;SDS011;44930;52.878;6.168;2022-07-25T05:05:23;13.88;;;10.43;;
59147;SDS011;44930;52.878;6.168;2022-07-25T05:07:56;11.93;;;10.63;;
59147;SDS011;44930;52.878;6.168;2022-07-25T05:10:23;11.55;;;10.35;;
59147;SDS011;44930;52.878;6.168;2022-07-25T05:12:49;16.77;;;11.88;;
59147;SDS011;44930;52.878;6.168;2022-07-25T05:15:15;17.08;;;12.63;;
59147;SDS011;44930;52.878;6.168;2022-07-25T05:17:41;11.93;;;10.68;;
59147;SDS011;44930;52.878;6.168;2022-07-25T05:20:06;12.02;;;9.82;;
59147;SDS011;44930;52.878;6.168;2022-07-25T05:22:36;13.93;;;12.40;;
59147;SDS011;44930;52.878;6.168;2022-07-25T05:25:01;17.10;;;12.98;;
59147;SDS011;44930;52.878;6.168;2022-07-25T05:27:30;15.10;;;12.73;;
59147;SDS011;44930;52.878;6.168;2022-07-25T05:29:55;16.08;;;13.40;;
59147;SDS011;44930;52.878;6.168;2022-07-25T05:32:21;18.13;;;12.10;;
59147;SDS011;44930;52.878;6.168;2022-07-25T05:34:47;15.00;;;12.65;;
59147;SDS011;44930;52.878;6.168;2022-07-25T05:37:12;15.98;;;14.23;;
59147;SDS011;44930;52.878;6.168;2022-07-25T05:39:38;16.55;;;13.65;;
59147;SDS011;44930;52.878;6.168;2022-07-25T05:42:05;15.45;;;13.77;;
59147;SDS011;44930;52.878;6.168;2022-07-25T05:44:31;17.60;;;12.63;;
59147;SDS011;44930;52.878;6.168;2022-07-25T05:46:57;15.93;;;13.07;;
59147;SDS011;44930;52.878;6.168;2022-07-25T05:49:22;16.67;;;13.73;;
59147;SDS011;44930;52.878;6.168;2022-07-25T05:51:48;14.15;;;12.65;;
59147;SDS011;44930;52.878;6.168;2022-07-25T05:54:14;20.10;;;14.07;;
59147;SDS011;44930;52.878;6.168;2022-07-25T05:56:39;21.25;;;14.02;;
59147;SDS011;44930;52.878;6.168;2022-07-25T05:59:05;20.90;;;14.52;;
59147;SDS011;44930;52.878;6.168;2022-07-25T06:01:30;15.00;;;13.10;;
59147;SDS011;44930;52.878;6.168;2022-07-25T06:03:56;14.43;;;12.57;;
59147;SDS011;44930;52.878;6.168;2022-07-25T06:06:22;15.93;;;14.27;;
59147;SDS011;44930;52.878;6.168;2022-07-25T06:08:47;15.75;;;13.75;;
59147;SDS011;44930;52.878;6.168;2022-07-25T06:11:13;15.77;;;13.50;;
59147;SDS011;44930;52.878;6.168;2022-07-25T06:13:38;16.08;;;13.75;;
59147;SDS011;44930;52.878;6.168;2022-07-25T06:16:04;15.07;;;13.32;;
59147;SDS011;44930;52.878;6.168;2022-07-25T06:18:30;15.93;;;13.13;;
59147;SDS011;44930;52.878;6.168;2022-07-25T06:20:55;14.85;;;13.35;;
59147;SDS011;44930;52.878;6.168;2022-07-25T06:23:21;13.40;;;12.02;;
59147;SDS011;44930;52.878;6.168;2022-07-25T06:25:47;18.90;;;13.05;;
59147;SDS011;44930;52.878;6.168;2022-07-25T06:28:13;13.60;;;11.80;;
59147;SDS011;44930;52.878;6.168;2022-07-25T06:30:44;13.80;;;12.25;;
59147;SDS011;44930;52.878;6.168;2022-07-25T06:33:10;12.40;;;11.10;;
59147;SDS011;44930;52.878;6.168;2022-07-25T06:35:36;13.52;;;11.57;;
59147;SDS011;44930;52.878;6.168;2022-07-25T06:38:01;12.18;;;10.38;;
59147;SDS011;44930;52.878;6.168;2022-07-25T06:40:29;12.20;;;10.07;;
59147;SDS011;44930;52.878;6.168;2022-07-25T06:42:55;12.57;;;9.95;;
59147;SDS011;44930;52.878;6.168;2022-07-25T06:45:21;11.60;;;10.40;;
59147;SDS011;44930;52.878;6.168;2022-07-25T06:47:47;13.93;;;10.63;;
59147;SDS011;44930;52.878;6.168;2022-07-25T06:50:14;12.32;;;11.02;;
59147;SDS011;44930;52.878;6.168;2022-07-25T06:52:42;15.23;;;11.52;;
59147;SDS011;44930;52.878;6.168;2022-07-25T06:55:09;16.23;;;13.02;;
59147;SDS011;44930;52.878;6.168;2022-07-25T06:57:35;13.63;;;11.60;;
59147;SDS011;44930;52.878;6.168;2022-07-25T07:00:05;15.40;;;10.88;;
59147;SDS011;44930;52.878;6.168;2022-07-25T07:02:33;15.43;;;11.88;;
59147;SDS011;44930;52.878;6.168;2022-07-25T07:05:24;12.75;;;11.45;;
59147;SDS011;44930;52.878;6.168;2022-07-25T07:07:51;15.25;;;12.27;;
59147;SDS011;44930;52.878;6.168;2022-07-25T07:10:20;12.75;;;11.40;;
59147;SDS011;44930;52.878;6.168;2022-07-25T07:12:46;12.23;;;10.57;;
59147;SDS011;44930;52.878;6.168;2022-07-25T07:15:12;13.57;;;11.60;;
59147;SDS011;44930;52.878;6.168;2022-07-25T07:17:38;13.90;;;11.40;;
59147;SDS011;44930;52.878;6.168;2022-07-25T07:20:07;13.32;;;11.30;;
59147;SDS011;44930;52.878;6.168;2022-07-25T07:22:46;14.80;;;11.65;;
59147;SDS011;44930;52.878;6.168;2022-07-25T07:25:13;14.15;;;10.13;;
59147;SDS011;44930;52.878;6.168;2022-07-25T07:27:41;13.68;;;10.80;;
59147;SDS011;44930;52.878;6.168;2022-07-25T07:30:07;14.65;;;9.43;;
59147;SDS011;44930;52.878;6.168;2022-07-25T07:32:33;11.35;;;9.38;;
59147;SDS011;44930;52.878;6.168;2022-07-25T07:34:59;10.88;;;8.68;;
59147;SDS011;44930;52.878;6.168;2022-07-25T07:37:24;9.55;;;8.15;;
59147;SDS011;44930;52.878;6.168;2022-07-25T07:39:53;8.82;;;7.93;;
59147;SDS011;44930;52.878;6.168;2022-07-25T07:42:21;10.80;;;9.38;;
59147;SDS011;44930;52.878;6.168;2022-07-25T07:44:47;12.15;;;8.70;;
59147;SDS011;44930;52.878;6.168;2022-07-25T07:47:13;9.38;;;8.32;;
59147;SDS011;44930;52.878;6.168;2022-07-25T07:49:39;9.00;;;6.82;;
59147;SDS011;44930;52.878;6.168;2022-07-25T07:52:04;14.98;;;7.93;;
59147;SDS011;44930;52.878;6.168;2022-07-25T07:54:30;10.43;;;7.40;;
59147;SDS011;44930;52.878;6.168;2022-07-25T07:57:14;8.20;;;6.15;;
59147;SDS011;44930;52.878;6.168;2022-07-25T07:59:39;6.35;;;4.97;;
59147;SDS011;44930;52.878;6.168;2022-07-25T08:02:05;6.53;;;4.18;;
59147;SDS011;44930;52.878;6.168;2022-07-25T08:04:31;4.57;;;3.65;;
59147;SDS011;44930;52.878;6.168;2022-07-25T08:06:56;6.15;;;3.55;;
59147;SDS011;44930;52.878;6.168;2022-07-25T08:09:22;3.55;;;2.65;;
59147;SDS011;44930;52.878;6.168;2022-07-25T08:11:50;3.33;;;2.65;;
59147;SDS011;44930;52.878;6.168;2022-07-25T08:14:16;3.15;;;2.00;;
59147;SDS011;44930;52.878;6.168;2022-07-25T08:16:44;2.45;;;1.85;;
59147;SDS011;44930;52.878;6.168;2022-07-25T08:19:09;3.92;;;1.77;;
59147;SDS011;44930;52.878;6.168;2022-07-25T08:21:35;4.00;;;2.00;;
59147;SDS011;44930;52.878;6.168;2022-07-25T08:24:01;3.20;;;1.75;;
59147;SDS011;44930;52.878;6.168;2022-07-25T08:26:26;3.22;;;1.85;;
59147;SDS011;44930;52.878;6.168;2022-07-25T08:28:54;6.05;;;1.50;;
59147;SDS011;44930;52.878;6.168;2022-07-25T08:31:19;3.28;;;1.70;;
59147;SDS011;44930;52.878;6.168;2022-07-25T08:33:45;5.50;;;1.85;;
59147;SDS011;44930;52.878;6.168;2022-07-25T08:36:10;6.68;;;2.22;;
59147;SDS011;44930;52.878;6.168;2022-07-25T08:38:36;3.20;;;1.85;;
59147;SDS011;44930;52.878;6.168;2022-07-25T08:41:02;2.35;;;2.10;;
59147;SDS011;44930;52.878;6.168;2022-07-25T08:43:28;2.65;;;1.88;;
59147;SDS011;44930;52.878;6.168;2022-07-25T08:45:57;6.25;;;2.15;;
59147;SDS011;44930;52.878;6.168;2022-07-25T08:48:25;4.60;;;2.40;;
59147;SDS011;44930;52.878;6.168;2022-07-25T08:50:53;4.53;;;2.50;;
59147;SDS011;44930;52.878;6.168;2022-07-25T08:53:21;6.32;;;2.45;;
59147;SDS011;44930;52.878;6.168;2022-07-25T08:55:46;7.18;;;2.58;;
59147;SDS011;44930;52.878;6.168;2022-07-25T08:58:13;3.10;;;2.30;;
59147;SDS011;44930;52.878;6.168;2022-07-25T09:00:40;5.70;;;2.60;;
59147;SDS011;44930;52.878;6.168;2022-07-25T09:03:08;5.28;;;2.50;;
59147;SDS011;44930;52.878;6.168;2022-07-25T09:05:35;3.92;;;2.42;;
59147;SDS011;44930;52.878;6.168;2022-07-25T09:08:10;6.70;;;2.28;;
59147;SDS011;44930;52.878;6.168;2022-07-25T09:10:37;6.78;;;2.47;;
59147;SDS011;44930;52.878;6.168;2022-07-25T09:13:07;5.43;;;3.00;;
59147;SDS011;44930;52.878;6.168;2022-07-25T09:15:39;4.55;;;2.80;;
59147;SDS011;44930;52.878;6.168;2022-07-25T09:18:12;4.35;;;2.05;;
59147;SDS011;44930;52.878;6.168;2022-07-25T09:20:43;4.82;;;2.67;;
59147;SDS011;44930;52.878;6.168;2022-07-25T09:23:27;5.38;;;2.22;;
59147;SDS011;44930;52.878;6.168;2022-07-25T09:26:00;4.82;;;2.70;;
59147;SDS011;44930;52.878;6.168;2022-07-25T09:28:27;5.38;;;2.25;;
59147;SDS011;44930;52.878;6.168;2022-07-25T09:30:54;4.95;;;2.60;;
59147;SDS011;44930;52.878;6.168;2022-07-25T09:33:21;3.80;;;2.35;;
59147;SDS011;44930;52.878;6.168;2022-07-25T09:35:48;5.15;;;2.85;;
59147;SDS011;44930;52.878;6.168;2022-07-25T09:38:14;4.43;;;2.42;;
59147;SDS011;44930;52.878;6.168;2022-07-25T09:40:51;4.50;;;2.58;;
59147;SDS011;44930;52.878;6.168;2022-07-25T09:43:35;4.75;;;2.50;;
59147;SDS011;44930;52.878;6.168;2022-07-25T09:46:05;3.78;;;2.17;;
59147;SDS011;44930;52.878;6.168;2022-07-25T09:48:31;5.60;;;2.10;;
59147;SDS011;44930;52.878;6.168;2022-07-25T09:50:58;4.72;;;2.72;;
59147;SDS011;44930;52.878;6.168;2022-07-25T09:53:24;3.95;;;1.85;;
59147;SDS011;44930;52.878;6.168;2022-07-25T09:55:49;4.35;;;1.90;;
59147;SDS011;44930;52.878;6.168;2022-07-25T09:58:17;3.60;;;1.85;;
59147;SDS011;44930;52.878;6.168;2022-07-25T10:00:43;5.63;;;2.10;;
59147;SDS011;44930;52.878;6.168;2022-07-25T10:03:17;3.72;;;2.10;;
59147;SDS011;44930;52.878;6.168;2022-07-25T10:06:21;6.22;;;1.80;;
59147;SDS011;44930;52.878;6.168;2022-07-25T10:08:51;4.07;;;2.00;;
59147;SDS011;44930;52.878;6.168;2022-07-25T10:11:24;12.98;;;2.78;;
59147;SDS011;44930;52.878;6.168;2022-07-25T10:13:52;8.23;;;1.60;;
59147;SDS011;44930;52.878;6.168;2022-07-25T10:16:27;3.30;;;1.80;;
59147;SDS011;44930;52.878;6.168;2022-07-25T10:18:56;5.80;;;2.50;;
59147;SDS011;44930;52.878;6.168;2022-07-25T10:21:23;6.28;;;2.25;;
59147;SDS011;44930;52.878;6.168;2022-07-25T10:24:31;6.72;;;1.90;;
59147;SDS011;44930;52.878;6.168;2022-07-25T10:26:50;5.70;;;1.95;;
59147;SDS011;44930;52.878;6.168;2022-07-25T10:29:17;9.23;;;2.47;;
59147;SDS011;44930;52.878;6.168;2022-07-25T10:31:42;6.03;;;2.38;;
59147;SDS011;44930;52.878;6.168;2022-07-25T10:34:10;6.55;;;2.03;;
59147;SDS011;44930;52.878;6.168;2022-07-25T10:39:14;7.80;;;3.08;;
59147;SDS011;44930;52.878;6.168;2022-07-25T10:41:42;5.63;;;2.63;;
59147;SDS011;44930;52.878;6.168;2022-07-25T10:44:14;8.73;;;2.70;;
59147;SDS011;44930;52.878;6.168;2022-07-25T10:46:40;8.93;;;2.60;;
59147;SDS011;44930;52.878;6.168;2022-07-25T10:49:18;5.13;;;2.45;;
59147;SDS011;44930;52.878;6.168;2022-07-25T10:51:59;7.50;;;2.80;;
59147;SDS011;44930;52.878;6.168;2022-07-25T10:54:32;6.63;;;3.13;;
59147;SDS011;44930;52.878;6.168;2022-07-25T10:57:03;6.53;;;3.05;;
59147;SDS011;44930;52.878;6.168;2022-07-25T10:59:31;8.52;;;2.80;;
59147;SDS011;44930;52.878;6.168;2022-07-25T11:01:59;9.82;;;3.10;;
59147;SDS011;44930;52.878;6.168;2022-07-25T11:04:27;7.68;;;2.85;;
59147;SDS011;44930;52.878;6.168;2022-07-25T11:06:54;8.05;;;3.13;;
59147;SDS011;44930;52.878;6.168;2022-07-25T11:09:20;10.32;;;3.03;;
59147;SDS011;44930;52.878;6.168;2022-07-25T11:11:49;9.82;;;2.88;;
59147;SDS011;44930;52.878;6.168;2022-07-25T11:16:42;6.57;;;3.08;;
59147;SDS011;44930;52.878;6.168;2022-07-25T11:19:22;8.18;;;3.15;;
59147;SDS011;44930;52.878;6.168;2022-07-25T11:21:56;10.98;;;2.83;;
59147;SDS011;44930;52.878;6.168;2022-07-25T11:24:33;11.98;;;3.42;;
59147;SDS011;44930;52.878;6.168;2022-07-25T11:27:06;9.00;;;2.63;;
59147;SDS011;44930;52.878;6.168;2022-07-25T11:29:33;9.93;;;2.72;;
59147;SDS011;44930;52.878;6.168;2022-07-25T11:32:04;6.22;;;2.05;;
59147;SDS011;44930;52.878;6.168;2022-07-25T11:34:32;7.10;;;2.33;;
59147;SDS011;44930;52.878;6.168;2022-07-25T11:37:00;6.45;;;2.40;;
59147;SDS011;44930;52.878;6.168;2022-07-25T11:39:29;6.35;;;2.20;;
59147;SDS011;44930;52.878;6.168;2022-07-25T11:42:07;5.93;;;1.80;;
59147;SDS011;44930;52.878;6.168;2022-07-25T11:47:08;10.57;;;2.53;;
59147;SDS011;44930;52.878;6.168;2022-07-25T11:49:47;9.98;;;2.83;;
59147;SDS011;44930;52.878;6.168;2022-07-25T11:52:27;7.03;;;2.40;;
59147;SDS011;44930;52.878;6.168;2022-07-25T11:57:36;8.68;;;2.53;;
59147;SDS011;44930;52.878;6.168;2022-07-25T12:00:06;7.90;;;2.58;;
59147;SDS011;44930;52.878;6.168;2022-07-25T12:02:34;7.45;;;1.92;;
59147;SDS011;44930;52.878;6.168;2022-07-25T12:05:04;4.53;;;1.92;;
59147;SDS011;44930;52.878;6.168;2022-07-25T12:07:36;8.40;;;2.85;;
59147;SDS011;44930;52.878;6.168;2022-07-25T12:15:15;9.48;;;2.53;;
59147;SDS011;44930;52.878;6.168;2022-07-25T12:17:43;7.35;;;2.47;;
59147;SDS011;44930;52.878;6.168;2022-07-25T12:20:11;6.47;;;2.35;;
59147;SDS011;44930;52.878;6.168;2022-07-25T12:22:39;10.82;;;2.50;;
59147;SDS011;44930;52.878;6.168;2022-07-25T12:25:04;10.73;;;2.53;;
59147;SDS011;44930;52.878;6.168;2022-07-25T12:27:30;10.07;;;2.67;;
59147;SDS011;44930;52.878;6.168;2022-07-25T12:29:56;7.30;;;2.17;;
59147;SDS011;44930;52.878;6.168;2022-07-25T12:32:22;7.55;;;2.42;;
59147;SDS011;44930;52.878;6.168;2022-07-25T12:34:47;8.60;;;2.78;;
59147;SDS011;44930;52.878;6.168;2022-07-25T12:37:13;9.35;;;2.60;;
59147;SDS011;44930;52.878;6.168;2022-07-25T12:39:39;8.23;;;2.25;;
59147;SDS011;44930;52.878;6.168;2022-07-25T12:42:04;9.50;;;2.90;;
59147;SDS011;44930;52.878;6.168;2022-07-25T12:44:35;6.90;;;2.05;;
59147;SDS011;44930;52.878;6.168;2022-07-25T12:47:01;7.53;;;3.08;;
59147;SDS011;44930;52.878;6.168;2022-07-25T12:49:27;7.32;;;2.20;;
59147;SDS011;44930;52.878;6.168;2022-07-25T12:51:53;9.05;;;2.08;;
59147;SDS011;44930;52.878;6.168;2022-07-25T12:54:19;9.07;;;2.13;;
59147;SDS011;44930;52.878;6.168;2022-07-25T12:56:44;5.57;;;1.90;;
59147;SDS011;44930;52.878;6.168;2022-07-25T12:59:10;5.43;;;1.88;;
59147;SDS011;44930;52.878;6.168;2022-07-25T13:01:35;6.45;;;1.80;;
59147;SDS011;44930;52.878;6.168;2022-07-25T13:04:01;6.97;;;2.10;;
59147;SDS011;44930;52.878;6.168;2022-07-25T13:06:28;8.30;;;2.10;;
59147;SDS011;44930;52.878;6.168;2022-07-25T13:08:56;5.70;;;2.00;;
59147;SDS011;44930;52.878;6.168;2022-07-25T13:11:24;6.65;;;1.92;;
59147;SDS011;44930;52.878;6.168;2022-07-25T13:13:50;8.55;;;2.08;;
59147;SDS011;44930;52.878;6.168;2022-07-25T13:16:18;5.38;;;1.95;;
59147;SDS011;44930;52.878;6.168;2022-07-25T13:18:43;8.27;;;2.47;;
59147;SDS011;44930;52.878;6.168;2022-07-25T13:21:09;6.32;;;2.33;;
59147;SDS011;44930;52.878;6.168;2022-07-25T13:23:35;8.07;;;2.35;;
59147;SDS011;44930;52.878;6.168;2022-07-25T13:26:03;8.50;;;2.40;;
59147;SDS011;44930;52.878;6.168;2022-07-25T13:28:29;7.82;;;2.05;;
59147;SDS011;44930;52.878;6.168;2022-07-25T13:30:57;7.85;;;2.80;;
59147;SDS011;44930;52.878;6.168;2022-07-25T13:33:23;8.50;;;2.85;;
59147;SDS011;44930;52.878;6.168;2022-07-25T13:35:48;8.10;;;2.50;;
59147;SDS011;44930;52.878;6.168;2022-07-25T13:38:14;9.70;;;3.13;;
59147;SDS011;44930;52.878;6.168;2022-07-25T13:40:39;10.57;;;2.67;;
59147;SDS011;44930;52.878;6.168;2022-07-25T13:43:08;8.32;;;2.60;;
59147;SDS011;44930;52.878;6.168;2022-07-25T13:45:35;6.45;;;2.15;;
59147;SDS011;44930;52.878;6.168;2022-07-25T13:48:01;10.65;;;2.63;;
59147;SDS011;44930;52.878;6.168;2022-07-25T13:50:27;12.73;;;2.67;;
59147;SDS011;44930;52.878;6.168;2022-07-25T13:52:52;9.75;;;2.53;;
59147;SDS011;44930;52.878;6.168;2022-07-25T13:55:21;11.52;;;2.90;;
59147;SDS011;44930;52.878;6.168;2022-07-25T13:57:47;9.57;;;2.55;;
59147;SDS011;44930;52.878;6.168;2022-07-25T14:00:12;10.88;;;2.85;;
59147;SDS011;44930;52.878;6.168;2022-07-25T14:02:38;9.38;;;2.35;;
59147;SDS011;44930;52.878;6.168;2022-07-25T14:05:04;8.30;;;2.38;;
59147;SDS011;44930;52.878;6.168;2022-07-25T14:07:30;9.82;;;2.55;;
59147;SDS011;44930;52.878;6.168;2022-07-25T14:09:55;11.15;;;2.92;;
59147;SDS011;44930;52.878;6.168;2022-07-25T14:12:21;9.65;;;2.50;;
59147;SDS011;44930;52.878;6.168;2022-07-25T14:14:49;8.30;;;2.70;;
59147;SDS011;44930;52.878;6.168;2022-07-25T14:17:14;8.80;;;2.20;;
59147;SDS011;44930;52.878;6.168;2022-07-25T14:19:40;9.73;;;2.47;;
59147;SDS011;44930;52.878;6.168;2022-07-25T14:22:06;6.25;;;2.20;;
59147;SDS011;44930;52.878;6.168;2022-07-25T14:24:32;11.25;;;2.47;;
59147;SDS011;44930;52.878;6.168;2022-07-25T14:26:58;6.53;;;2.40;;
59147;SDS011;44930;52.878;6.168;2022-07-25T14:29:24;9.30;;;2.47;;
59147;SDS011;44930;52.878;6.168;2022-07-25T14:31:49;7.70;;;2.78;;
59147;SDS011;44930;52.878;6.168;2022-07-25T14:34:15;7.13;;;2.63;;
59147;SDS011;44930;52.878;6.168;2022-07-25T14:36:41;8.20;;;2.15;;
59147;SDS011;44930;52.878;6.168;2022-07-25T14:39:08;14.40;;;3.03;;
59147;SDS011;44930;52.878;6.168;2022-07-25T14:41:34;8.85;;;2.45;;
59147;SDS011;44930;52.878;6.168;2022-07-25T14:44:02;8.30;;;2.97;;
59147;SDS011;44930;52.878;6.168;2022-07-25T14:46:27;8.45;;;2.60;;
59147;SDS011;44930;52.878;6.168;2022-07-25T14:48:53;11.50;;;2.63;;
59147;SDS011;44930;52.878;6.168;2022-07-25T14:51:19;9.00;;;2.53;;
59147;SDS011;44930;52.878;6.168;2022-07-25T14:53:44;9.68;;;2.72;;
59147;SDS011;44930;52.878;6.168;2022-07-25T14:56:10;11.02;;;2.85;;